Time;durP1;ratioP1;P1;durP2;ratioP2;P2;SDS_P1;SDS_P2;PMS_P1;PMS_P2;Temp;Humidity;BMP_temperature;BMP_pressure;BME280_temperature;BME280_humidity;BME280_pressure;Samples;Min_cycle;Max_cycle;Signal;HPM_P1;HPM_P2
2022/01/18 00:02:28;;;;;;;14.33;9.30;;;;;;;;;;4742690;30;20946;-89
2022/01/18 00:05:32;;;;;;;15.43;9.67;;;;;;;;;;4743992;30;20950;-87
2022/01/18 00:08:37;;;;;;;15.67;10.30;;;;;;;;;;4762621;30;20631;-87
2022/01/18 00:11:49;;;;;;;15.73;10.20;;;;;;;;;;4727434;30;20612;-87
2022/01/18 00:15:16;;;;;;;17.23;9.67;;;;;;;;;;4749914;30;20619;-89
2022/01/18 00:18:18;;;;;;;12.97;9.40;;;;;;;;;;4752276;30;20675;-87
2022/01/18 00:24:27;;;;;;;15.47;9.57;;;;;;;;;;4766512;30;20595;-87
2022/01/18 00:27:32;;;;;;;12.63;9.00;;;;;;;;;;4742493;30;20564;-89
2022/01/18 00:40:10;;;;;;;16.73;10.70;;;;;;;;;;4752355;30;20557;-88
2022/01/18 00:43:15;;;;;;;16.87;10.57;;;;;;;;;;4744021;30;20617;-88
2022/01/18 00:46:19;;;;;;;16.40;10.33;;;;;;;;;;4734247;30;20631;-88
2022/01/18 00:49:24;;;;;;;14.23;10.53;;;;;;;;;;4734212;30;20651;-88
2022/01/18 00:52:31;;;;;;;16.63;11.07;;;;;;;;;;4742309;30;20613;-88
2022/01/18 00:55:47;;;;;;;14.37;9.57;;;;;;;;;;4761959;30;20917;-88
2022/01/18 00:59:00;;;;;;;16.83;11.33;;;;;;;;;;4751368;30;20676;-88
2022/01/18 01:02:04;;;;;;;15.90;10.87;;;;;;;;;;4741337;30;21013;-88
2022/01/18 01:05:09;;;;;;;14.83;10.10;;;;;;;;;;4761692;30;20642;-88
2022/01/18 01:08:13;;;;;;;16.90;11.17;;;;;;;;;;4772220;30;20670;-88
2022/01/18 01:11:18;;;;;;;15.20;10.87;;;;;;;;;;4751119;30;20976;-87
2022/01/18 01:14:25;;;;;;;16.13;11.17;;;;;;;;;;4741344;30;20564;-88
2022/01/18 01:17:43;;;;;;;17.97;10.93;;;;;;;;;;4741773;30;20905;-86
2022/01/18 01:34:38;;;;;;;17.77;11.70;;;;;;;;;;4744605;30;20616;-87
2022/01/18 01:44:47;;;;;;;17.77;11.90;;;;;;;;;;4750912;30;20623;-87
2022/01/18 01:47:53;;;;;;;16.50;11.47;;;;;;;;;;4760978;30;20556;-87
2022/01/18 01:51:05;;;;;;;17.10;11.60;;;;;;;;;;4740192;30;20612;-87
2022/01/18 01:54:11;;;;;;;15.87;10.87;;;;;;;;;;4740618;30;20639;-87
2022/01/18 01:57:15;;;;;;;17.43;11.70;;;;;;;;;;4750662;30;21177;-87
2022/01/18 02:00:22;;;;;;;20.10;12.33;;;;;;;;;;4732722;30;20614;-88
2022/01/18 02:03:27;;;;;;;17.57;11.70;;;;;;;;;;4736655;30;20607;-88
2022/01/18 02:06:31;;;;;;;21.13;12.83;;;;;;;;;;4740592;30;20622;-88
2022/01/18 02:09:35;;;;;;;19.20;12.00;;;;;;;;;;4760960;30;20642;-88
2022/01/18 02:12:39;;;;;;;17.80;11.37;;;;;;;;;;4742360;30;20656;-89
2022/01/18 02:22:29;;;;;;;20.17;12.13;;;;;;;;;;4758052;30;20700;-88
2022/01/18 02:25:34;;;;;;;18.90;11.70;;;;;;;;;;4749431;30;20615;-87
2022/01/18 02:28:39;;;;;;;21.23;13.37;;;;;;;;;;4740215;30;20651;-87
2022/01/18 02:31:43;;;;;;;20.10;12.67;;;;;;;;;;4740101;30;21287;-88
2022/01/18 02:34:47;;;;;;;20.03;12.63;;;;;;;;;;4739907;30;20613;-88
2022/01/18 02:37:52;;;;;;;24.10;12.87;;;;;;;;;;4749673;30;20611;-88
2022/01/18 02:40:57;;;;;;;19.93;13.13;;;;;;;;;;4739581;30;20592;-88
2022/01/18 02:44:05;;;;;;;22.73;12.90;;;;;;;;;;4749715;30;20692;-87
2022/01/18 02:47:10;;;;;;;20.37;12.77;;;;;;;;;;4741914;30;20612;-88
2022/01/18 02:50:14;;;;;;;19.37;13.17;;;;;;;;;;4740548;30;20615;-87
2022/01/18 02:53:18;;;;;;;22.33;13.57;;;;;;;;;;4746675;30;20615;-88
2022/01/18 02:56:24;;;;;;;21.33;14.03;;;;;;;;;;4744850;30;20633;-88
2022/01/18 03:06:09;;;;;;;22.23;13.57;;;;;;;;;;4741974;30;21132;-87
2022/01/18 03:09:13;;;;;;;24.40;14.93;;;;;;;;;;4721874;30;20655;-87
2022/01/18 03:12:17;;;;;;;25.27;15.13;;;;;;;;;;4746910;30;20627;-87
2022/01/18 03:15:21;;;;;;;22.60;13.97;;;;;;;;;;4749762;30;20566;-88
2022/01/18 03:18:25;;;;;;;23.87;14.67;;;;;;;;;;4739463;30;20642;-88
2022/01/18 03:21:30;;;;;;;22.93;14.97;;;;;;;;;;4739061;30;20607;-88
2022/01/18 03:25:01;;;;;;;23.63;13.83;;;;;;;;;;4739855;30;20563;-88
2022/01/18 03:28:08;;;;;;;20.90;12.87;;;;;;;;;;4739144;30;20636;-86
2022/01/18 03:31:12;;;;;;;19.10;12.53;;;;;;;;;;4739026;30;20612;-87
2022/01/18 03:34:17;;;;;;;20.37;11.77;;;;;;;;;;4739696;30;20573;-88
2022/01/18 03:37:21;;;;;;;18.27;11.50;;;;;;;;;;4734305;30;21108;-88
2022/01/18 03:40:25;;;;;;;17.67;11.13;;;;;;;;;;4747092;30;20772;-88
2022/01/18 03:43:31;;;;;;;18.40;11.77;;;;;;;;;;4735314;30;20561;-87
2022/01/18 03:46:37;;;;;;;16.47;11.63;;;;;;;;;;4738487;30;20638;-87
2022/01/18 03:49:40;;;;;;;19.67;11.70;;;;;;;;;;4742309;30;20646;-86
2022/01/18 03:52:46;;;;;;;21.23;11.60;;;;;;;;;;4752194;30;20631;-87
2022/01/18 03:55:52;;;;;;;17.70;11.40;;;;;;;;;;4734922;30;20974;-86
2022/01/18 03:58:56;;;;;;;18.77;11.47;;;;;;;;;;4754839;30;21045;-87
2022/01/18 04:02:00;;;;;;;19.17;11.10;;;;;;;;;;4745294;30;20560;-87
2022/01/18 04:05:05;;;;;;;19.00;11.93;;;;;;;;;;4739386;30;20596;-87
2022/01/18 04:08:09;;;;;;;19.17;11.53;;;;;;;;;;4752491;30;20645;-87
2022/01/18 04:11:13;;;;;;;19.03;12.00;;;;;;;;;;4752541;30;20568;-88
2022/01/18 04:14:18;;;;;;;19.70;12.13;;;;;;;;;;4752251;30;20606;-87
2022/01/18 04:27:28;;;;;;;19.67;11.23;;;;;;;;;;4752147;30;20572;-87
2022/01/18 04:30:33;;;;;;;21.70;12.30;;;;;;;;;;4762801;30;20271;-88
2022/01/18 04:33:38;;;;;;;21.27;12.20;;;;;;;;;;4727270;30;20631;-88
2022/01/18 04:36:45;;;;;;;20.43;11.83;;;;;;;;;;4744881;30;20560;-86
2022/01/18 04:39:49;;;;;;;22.60;12.53;;;;;;;;;;4734156;30;20671;-88
2022/01/18 04:49:21;;;;;;;18.80;11.70;;;;;;;;;;4750998;30;20664;-88
2022/01/18 04:52:25;;;;;;;17.30;11.27;;;;;;;;;;4734909;30;21200;-87
2022/01/18 04:55:32;;;;;;;17.10;11.70;;;;;;;;;;4742067;30;20564;-86
2022/01/18 04:58:37;;;;;;;18.23;11.27;;;;;;;;;;4775060;24;20702;-87
2022/01/18 05:01:42;;;;;;;16.67;10.40;;;;;;;;;;4748303;30;21214;-87
2022/01/18 05:04:46;;;;;;;17.80;11.00;;;;;;;;;;4723734;30;20632;-87
2022/01/18 05:07:52;;;;;;;15.40;10.53;;;;;;;;;;4724687;30;20619;-88
2022/01/18 05:10:57;;;;;;;19.60;11.23;;;;;;;;;;4716472;30;20561;-87
2022/01/18 05:17:35;;;;;;;18.03;10.90;;;;;;;;;;4742109;30;20617;-87
2022/01/18 05:24:01;;;;;;;19.33;10.43;;;;;;;;;;4742786;30;20612;-87
2022/01/18 05:27:05;;;;;;;19.10;9.97;;;;;;;;;;4733361;30;21128;-87
2022/01/18 05:30:10;;;;;;;18.30;10.87;;;;;;;;;;4723201;30;20637;-87
2022/01/18 05:33:14;;;;;;;19.23;11.03;;;;;;;;;;4733106;30;21187;-87
2022/01/18 05:36:19;;;;;;;16.60;10.47;;;;;;;;;;4726766;30;20640;-88
2022/01/18 05:39:23;;;;;;;18.80;11.13;;;;;;;;;;4723098;30;20667;-88
2022/01/18 05:42:27;;;;;;;17.97;10.87;;;;;;;;;;4732995;30;20620;-87
2022/01/18 05:45:31;;;;;;;19.07;10.67;;;;;;;;;;4742887;30;20636;-87
2022/01/18 05:48:36;;;;;;;20.13;10.80;;;;;;;;;;4729556;30;21226;-87
2022/01/18 05:51:41;;;;;;;17.77;10.53;;;;;;;;;;4742287;30;20613;-87
2022/01/18 05:54:45;;;;;;;18.90;10.60;;;;;;;;;;4722441;30;20612;-87
2022/01/18 05:57:49;;;;;;;19.10;11.47;;;;;;;;;;4742623;30;20644;-87
2022/01/18 06:00:55;;;;;;;21.00;12.07;;;;;;;;;;4721884;30;20735;-88
2022/01/18 06:07:03;;;;;;;22.63;12.50;;;;;;;;;;4725722;30;20637;-88
2022/01/18 06:10:09;;;;;;;21.87;12.10;;;;;;;;;;4726284;30;20681;-87
2022/01/18 06:13:14;;;;;;;23.87;13.43;;;;;;;;;;4733391;30;20564;-87
2022/01/18 06:16:18;;;;;;;23.07;13.63;;;;;;;;;;4730637;30;20633;-88
2022/01/18 06:19:22;;;;;;;20.90;12.03;;;;;;;;;;4724505;30;20659;-87
2022/01/18 06:22:26;;;;;;;19.33;11.70;;;;;;;;;;4730416;30;20613;-88
2022/01/18 06:25:30;;;;;;;21.77;12.60;;;;;;;;;;4724939;30;20567;-88
2022/01/18 06:28:34;;;;;;;19.10;12.03;;;;;;;;;;4731063;30;21025;-87
2022/01/18 06:31:38;;;;;;;23.33;12.47;;;;;;;;;;4742325;30;20610;-87
2022/01/18 06:34:43;;;;;;;19.07;12.30;;;;;;;;;;4739227;30;20615;-87
2022/01/18 06:37:47;;;;;;;19.83;11.77;;;;;;;;;;4741926;30;20616;-87
2022/01/18 06:40:51;;;;;;;22.57;12.20;;;;;;;;;;4742075;30;20694;-87
2022/01/18 06:43:55;;;;;;;22.57;12.37;;;;;;;;;;4721997;30;20600;-87
2022/01/18 06:47:49;;;;;;;25.40;12.83;;;;;;;;;;4743263;30;20633;-88
2022/01/18 06:50:53;;;;;;;25.87;13.33;;;;;;;;;;4735158;30;20573;-88
2022/01/18 06:53:57;;;;;;;26.13;14.47;;;;;;;;;;4737420;30;20640;-88
2022/01/18 06:57:02;;;;;;;22.93;13.53;;;;;;;;;;4737864;30;20623;-88
2022/01/18 07:00:07;;;;;;;34.60;19.03;;;;;;;;;;4738155;30;20681;-88
2022/01/18 07:03:11;;;;;;;32.67;18.63;;;;;;;;;;4729587;30;20558;-88
2022/01/18 07:06:16;;;;;;;32.83;18.90;;;;;;;;;;4724322;30;20638;-88
2022/01/18 07:09:23;;;;;;;28.10;15.70;;;;;;;;;;4731366;30;20667;-88
2022/01/18 07:12:30;;;;;;;27.67;14.10;;;;;;;;;;4726954;30;21178;-88
2022/01/18 07:15:34;;;;;;;23.87;13.17;;;;;;;;;;4741723;30;20615;-88
2022/01/18 07:18:39;;;;;;;21.50;13.27;;;;;;;;;;4740878;30;20665;-88
2022/01/18 07:21:43;;;;;;;22.70;13.00;;;;;;;;;;4726239;30;20638;-88
2022/01/18 07:24:49;;;;;;;25.13;12.63;;;;;;;;;;4731467;30;20561;-87
2022/01/18 07:27:53;;;;;;;21.83;12.30;;;;;;;;;;4731768;30;20566;-88
2022/01/18 07:30:57;;;;;;;24.87;13.60;;;;;;;;;;4731787;30;20620;-88
2022/01/18 07:34:01;;;;;;;23.57;13.03;;;;;;;;;;4721610;30;20624;-88
2022/01/18 07:37:06;;;;;;;25.97;13.40;;;;;;;;;;4741262;30;20628;-88
2022/01/18 07:40:11;;;;;;;23.77;11.27;;;;;;;;;;4727112;30;20687;-88
2022/01/18 07:43:17;;;;;;;27.07;12.37;;;;;;;;;;4729978;30;20632;-88
2022/01/18 07:46:21;;;;;;;21.17;11.70;;;;;;;;;;4731602;30;20561;-88
2022/01/18 07:49:25;;;;;;;22.67;12.60;;;;;;;;;;4731407;30;20718;-88
2022/01/18 07:52:32;;;;;;;21.93;11.67;;;;;;;;;;4731600;30;20640;-88
2022/01/18 07:55:36;;;;;;;26.47;15.27;;;;;;;;;;4731695;30;20563;-88
2022/01/18 07:58:40;;;;;;;31.37;18.43;;;;;;;;;;4721171;30;20697;-88
2022/01/18 08:01:44;;;;;;;25.93;12.07;;;;;;;;;;4731441;30;21183;-88
2022/01/18 08:04:48;;;;;;;18.83;11.30;;;;;;;;;;4741196;30;20619;-88
2022/01/18 08:07:52;;;;;;;20.17;11.67;;;;;;;;;;4731737;30;21104;-88
2022/01/18 08:10:56;;;;;;;16.97;9.67;;;;;;;;;;4731358;30;20560;-88
2022/01/18 08:14:02;;;;;;;20.37;8.90;;;;;;;;;;4731407;30;20927;-88
2022/01/18 08:17:06;;;;;;;18.20;9.30;;;;;;;;;;4731335;30;20562;-88
2022/01/18 08:20:13;;;;;;;22.97;9.40;;;;;;;;;;4741264;30;20681;-88
2022/01/18 08:23:17;;;;;;;16.57;8.17;;;;;;;;;;4732202;30;20561;-88
2022/01/18 08:26:21;;;;;;;16.80;8.40;;;;;;;;;;4734843;30;20553;-88
2022/01/18 08:29:25;;;;;;;15.50;10.33;;;;;;;;;;4734494;30;20636;-88
2022/01/18 08:32:30;;;;;;;19.67;9.20;;;;;;;;;;4744235;30;21116;-88
2022/01/18 08:35:37;;;;;;;28.33;15.13;;;;;;;;;;4744324;30;20558;-88
2022/01/18 08:38:41;;;;;;;41.83;21.73;;;;;;;;;;4724620;30;20235;-88
2022/01/18 08:41:45;;;;;;;22.03;12.50;;;;;;;;;;4734084;30;20679;-88
2022/01/18 08:44:49;;;;;;;20.30;10.40;;;;;;;;;;4734208;30;20198;-88
2022/01/18 08:47:53;;;;;;;15.33;8.03;;;;;;;;;;4736117;30;20567;-88
2022/01/18 08:50:59;;;;;;;10.90;6.67;;;;;;;;;;4716582;30;20644;-88
2022/01/18 08:54:04;;;;;;;12.03;6.13;;;;;;;;;;4726568;30;20196;-86
2022/01/18 08:57:10;;;;;;;14.73;6.37;;;;;;;;;;4716552;30;20211;-85
2022/01/18 09:00:16;;;;;;;12.23;5.60;;;;;;;;;;4725873;30;20554;-85
2022/01/18 09:03:21;;;;;;;13.07;5.93;;;;;;;;;;4726516;30;20192;-85
2022/01/18 09:06:25;;;;;;;13.70;6.43;;;;;;;;;;4726397;30;20191;-85
2022/01/18 09:09:29;;;;;;;15.23;10.00;;;;;;;;;;4716112;30;20247;-85
2022/01/18 09:12:34;;;;;;;16.20;10.03;;;;;;;;;;4716325;30;20562;-85
2022/01/18 09:15:38;;;;;;;15.57;9.47;;;;;;;;;;4716234;30;20219;-85
2022/01/18 09:18:43;;;;;;;14.83;7.20;;;;;;;;;;4715820;30;20227;-85
2022/01/18 09:21:48;;;;;;;11.87;5.50;;;;;;;;;;4726066;30;20223;-85
2022/01/18 09:24:52;;;;;;;14.80;8.43;;;;;;;;;;4725906;30;20196;-85
2022/01/18 09:27:57;;;;;;;22.17;13.83;;;;;;;;;;4716022;30;20192;-84
2022/01/18 09:31:02;;;;;;;15.17;9.60;;;;;;;;;;4726054;30;20196;-85
2022/01/18 09:34:06;;;;;;;13.53;6.13;;;;;;;;;;4725784;30;20199;-85
2022/01/18 09:37:10;;;;;;;14.37;7.73;;;;;;;;;;4725876;30;20200;-85
2022/01/18 09:40:19;;;;;;;12.47;8.97;;;;;;;;;;4725599;30;20227;-85
2022/01/18 09:43:23;;;;;;;17.90;8.90;;;;;;;;;;4735673;30;20192;-85
2022/01/18 09:46:28;;;;;;;15.07;7.10;;;;;;;;;;4715597;30;20196;-85
2022/01/18 09:49:33;;;;;;;14.00;7.13;;;;;;;;;;4715337;30;20231;-85
2022/01/18 09:52:38;;;;;;;14.60;6.57;;;;;;;;;;4725534;30;20529;-85
2022/01/18 09:55:43;;;;;;;13.53;6.27;;;;;;;;;;4705876;30;20196;-85
2022/01/18 09:58:47;;;;;;;14.07;6.30;;;;;;;;;;4725868;30;20608;-85
2022/01/18 10:01:52;;;;;;;13.63;5.73;;;;;;;;;;4732756;30;20223;-85
2022/01/18 10:05:24;;;;;;;11.33;5.93;;;;;;;;;;4742974;30;20199;-85
2022/01/18 10:08:29;;;;;;;11.20;5.00;;;;;;;;;;4733055;30;20195;-85
2022/01/18 10:12:07;;;;;;;10.93;5.40;;;;;;;;;;4733318;30;20195;-85
2022/01/18 10:30:43;;;;;;;9.70;4.30;;;;;;;;;;4746491;30;20223;-87
2022/01/18 10:34:08;;;;;;;6.47;3.77;;;;;;;;;;4728030;30;20203;-85
2022/01/18 10:37:20;;;;;;;8.57;4.80;;;;;;;;;;4733366;30;20211;-85
2022/01/18 10:40:50;;;;;;;13.37;4.80;;;;;;;;;;4723394;30;20227;-85
2022/01/18 10:44:06;;;;;;;7.57;3.97;;;;;;;;;;4715455;30;20179;-86
2022/01/18 10:47:10;;;;;;;10.63;3.70;;;;;;;;;;4724518;30;20198;-87
2022/01/18 10:50:17;;;;;;;6.33;3.30;;;;;;;;;;4715203;30;20585;-87
2022/01/18 10:53:23;;;;;;;10.53;2.90;;;;;;;;;;4731815;30;20203;-87
2022/01/18 10:56:41;;;;;;;7.20;2.30;;;;;;;;;;4741770;30;20211;-87
2022/01/18 10:59:46;;;;;;;10.80;3.50;;;;;;;;;;4786689;24;20246;-91
2022/01/18 11:02:53;;;;;;;6.37;2.17;;;;;;;;;;4740444;30;20222;-89
2022/01/18 11:05:57;;;;;;;7.60;2.40;;;;;;;;;;4753665;30;20201;-90
2022/01/18 11:09:14;;;;;;;6.97;3.37;;;;;;;;;;4754256;30;20567;-88
2022/01/18 11:12:22;;;;;;;7.83;3.83;;;;;;;;;;4739281;30;20544;-89
2022/01/18 11:15:27;;;;;;;7.20;3.43;;;;;;;;;;4739178;30;20190;-88
2022/01/18 11:18:36;;;;;;;11.17;4.40;;;;;;;;;;4742531;30;20190;-89
2022/01/18 11:21:40;;;;;;;12.70;7.37;;;;;;;;;;4732559;30;20223;-88
2022/01/18 11:24:45;;;;;;;22.57;11.63;;;;;;;;;;4739536;30;20210;-89
2022/01/18 11:27:52;;;;;;;10.70;3.87;;;;;;;;;;4742947;30;20229;-87
2022/01/18 11:30:57;;;;;;;4.87;2.93;;;;;;;;;;4723161;30;20222;-87
2022/01/18 11:34:03;;;;;;;9.60;3.80;;;;;;;;;;4732875;30;20203;-88
2022/01/18 11:37:17;;;;;;;10.27;4.23;;;;;;;;;;4739342;30;20206;-89
2022/01/18 11:40:23;;;;;;;8.70;4.47;;;;;;;;;;4741702;30;20703;-89
2022/01/18 11:43:41;;;;;;;13.13;4.97;;;;;;;;;;4748466;30;20206;-88
2022/01/18 11:46:48;;;;;;;12.30;5.57;;;;;;;;;;4749263;30;20202;-88
2022/01/18 11:49:53;;;;;;;11.87;5.77;;;;;;;;;;4741278;30;20234;-87
2022/01/18 11:53:23;;;;;;;11.67;5.27;;;;;;;;;;4746801;30;20206;-87
2022/01/18 11:56:39;;;;;;;12.57;6.33;;;;;;;;;;4746390;30;20206;-86
2022/01/18 11:59:44;;;;;;;16.87;8.93;;;;;;;;;;4753063;30;20234;-86
2022/01/18 12:02:50;;;;;;;10.77;6.57;;;;;;;;;;4734788;30;20243;-88
2022/01/18 12:05:57;;;;;;;12.33;6.30;;;;;;;;;;4737345;30;20215;-88
2022/01/18 12:09:40;;;;;;;12.40;5.97;;;;;;;;;;4736344;30;20230;-87
2022/01/18 12:12:49;;;;;;;11.80;6.57;;;;;;;;;;4742379;30;20203;-88
2022/01/18 12:15:56;;;;;;;10.37;6.50;;;;;;;;;;4742499;30;20206;-87
2022/01/18 12:19:05;;;;;;;14.27;6.67;;;;;;;;;;4753348;30;20560;-87
2022/01/18 12:22:09;;;;;;;13.87;6.63;;;;;;;;;;4745066;30;20227;-87
2022/01/18 12:25:28;;;;;;;8.50;4.90;;;;;;;;;;4738562;30;20206;-87
2022/01/18 12:28:46;;;;;;;8.30;5.33;;;;;;;;;;4742759;30;20198;-87
2022/01/18 12:32:05;;;;;;;12.97;6.40;;;;;;;;;;4748065;30;20207;-87
2022/01/18 12:35:18;;;;;;;10.70;4.47;;;;;;;;;;4737287;30;20215;-87
2022/01/18 12:38:23;;;;;;;9.23;5.27;;;;;;;;;;4747126;30;20648;-87
2022/01/18 12:41:41;;;;;;;12.53;7.30;;;;;;;;;;4734800;30;20579;-87
2022/01/18 12:44:45;;;;;;;17.27;9.33;;;;;;;;;;4724803;30;20199;-87
2022/01/18 12:48:04;;;;;;;15.33;8.23;;;;;;;;;;4724766;30;20191;-87
2022/01/18 12:51:11;;;;;;;19.10;9.13;;;;;;;;;;4746085;30;20203;-87
2022/01/18 12:54:15;;;;;;;15.13;8.80;;;;;;;;;;4733910;30;20210;-87
2022/01/18 12:57:21;;;;;;;15.13;9.27;;;;;;;;;;4734717;30;20639;-87
2022/01/18 13:00:25;;;;;;;14.93;7.60;;;;;;;;;;4734894;30;20238;-86
2022/01/18 13:03:44;;;;;;;15.53;7.33;;;;;;;;;;4748776;30;20698;-88
2022/01/18 13:06:48;;;;;;;12.40;7.10;;;;;;;;;;4733624;30;20207;-87
2022/01/18 13:09:55;;;;;;;11.97;7.07;;;;;;;;;;4752048;30;20230;-87
2022/01/18 13:13:00;;;;;;;11.00;6.70;;;;;;;;;;4745792;30;20202;-89
2022/01/18 13:23:01;;;;;;;12.00;6.20;;;;;;;;;;4734683;30;20231;-88
2022/01/18 13:26:06;;;;;;;8.60;5.57;;;;;;;;;;4741871;30;20679;-89
2022/01/18 13:29:21;;;;;;;12.50;7.00;;;;;;;;;;4741350;30;20226;-88
2022/01/18 13:32:30;;;;;;;10.97;5.90;;;;;;;;;;4734556;30;20203;-88
2022/01/18 13:35:35;;;;;;;12.37;6.60;;;;;;;;;;4739706;30;20658;-88
2022/01/18 13:38:39;;;;;;;9.00;5.57;;;;;;;;;;4739952;30;20199;-87
2022/01/18 13:41:43;;;;;;;12.47;5.43;;;;;;;;;;4751131;30;20568;-88
2022/01/18 13:45:11;;;;;;;10.43;5.50;;;;;;;;;;4743386;30;20218;-87
2022/01/18 13:48:15;;;;;;;9.67;5.70;;;;;;;;;;4751173;30;20189;-88
2022/01/18 13:51:19;;;;;;;10.97;4.13;;;;;;;;;;4750945;30;20199;-87
2022/01/18 13:54:27;;;;;;;9.90;4.67;;;;;;;;;;4750904;30;20190;-88
2022/01/18 13:57:31;;;;;;;8.93;4.40;;;;;;;;;;4726588;30;20199;-88
2022/01/18 14:00:36;;;;;;;11.13;5.13;;;;;;;;;;4730722;30;20722;-88
2022/01/18 14:03:42;;;;;;;11.60;5.00;;;;;;;;;;4733313;30;20218;-88
2022/01/18 14:06:50;;;;;;;7.87;4.93;;;;;;;;;;4733182;30;20199;-87
2022/01/18 14:09:58;;;;;;;9.43;5.30;;;;;;;;;;4750201;30;20238;-88
2022/01/18 14:13:03;;;;;;;13.37;6.13;;;;;;;;;;4729886;30;20194;-87
2022/01/18 14:16:21;;;;;;;13.33;6.40;;;;;;;;;;4732991;30;20195;-88
2022/01/18 14:19:32;;;;;;;11.27;5.60;;;;;;;;;;4756208;30;20242;-88
2022/01/18 14:22:38;;;;;;;11.77;5.43;;;;;;;;;;4729160;30;20234;-87
2022/01/18 14:25:42;;;;;;;9.40;5.37;;;;;;;;;;4750335;30;20643;-88
2022/01/18 14:28:59;;;;;;;12.90;4.80;;;;;;;;;;4731472;30;20218;-88
2022/01/18 14:32:07;;;;;;;12.67;4.77;;;;;;;;;;4745818;30;20211;-88
2022/01/18 14:35:15;;;;;;;8.30;4.70;;;;;;;;;;4742570;30;20198;-88
2022/01/18 14:38:19;;;;;;;9.63;4.03;;;;;;;;;;4754641;30;20206;-88
2022/01/18 14:41:24;;;;;;;12.07;3.73;;;;;;;;;;4755664;30;20210;-88
2022/01/18 14:47:51;;;;;;;4.23;2.40;;;;;;;;;;4760246;30;20195;-87
2022/01/18 14:50:55;;;;;;;9.40;3.27;;;;;;;;;;4729678;30;20225;-88
2022/01/18 14:54:01;;;;;;;5.37;3.00;;;;;;;;;;4742475;30;20552;-87
2022/01/18 14:57:08;;;;;;;4.77;2.70;;;;;;;;;;4732404;30;20210;-87
2022/01/18 15:00:15;;;;;;;6.47;2.80;;;;;;;;;;4756928;30;20714;-88
2022/01/18 15:03:19;;;;;;;6.53;2.67;;;;;;;;;;4733108;30;20223;-87
2022/01/18 15:06:25;;;;;;;4.27;2.70;;;;;;;;;;4746971;30;20206;-87
2022/01/18 15:09:30;;;;;;;5.30;3.27;;;;;;;;;;4742005;30;20226;-88
2022/01/18 15:12:38;;;;;;;2.33;2.10;;;;;;;;;;4742220;30;20191;-88
2022/01/18 15:15:42;;;;;;;6.33;2.73;;;;;;;;;;4732052;30;20191;-88
2022/01/18 15:18:45;;;;;;;7.63;2.40;;;;;;;;;;4727472;30;20194;-87
2022/01/18 15:21:49;;;;;;;5.97;2.20;;;;;;;;;;4732732;30;20203;-87
2022/01/18 15:24:55;;;;;;;11.43;2.67;;;;;;;;;;4732036;30;20210;-87
2022/01/18 15:27:59;;;;;;;4.73;2.60;;;;;;;;;;4743435;30;20654;-89
2022/01/18 15:31:04;;;;;;;8.03;2.60;;;;;;;;;;4739305;30;20195;-87
2022/01/18 15:34:08;;;;;;;7.30;2.70;;;;;;;;;;4742814;30;20190;-86
2022/01/18 15:37:16;;;;;;;4.40;3.10;;;;;;;;;;4741924;30;20190;-87
2022/01/18 15:40:20;;;;;;;8.17;4.37;;;;;;;;;;4742923;30;20237;-87
2022/01/18 15:43:24;;;;;;;5.20;2.83;;;;;;;;;;4761530;30;20230;-87
2022/01/18 15:46:29;;;;;;;10.40;3.30;;;;;;;;;;4725498;30;20203;-87
2022/01/18 15:49:33;;;;;;;6.90;2.40;;;;;;;;;;4756743;30;20238;-87
2022/01/18 15:52:38;;;;;;;9.10;2.50;;;;;;;;;;4752908;30;20551;-87
2022/01/18 15:55:47;;;;;;;5.43;2.40;;;;;;;;;;4742774;30;20191;-87
2022/01/18 15:58:50;;;;;;;7.07;3.40;;;;;;;;;;4742214;30;20190;-87
2022/01/18 16:01:54;;;;;;;6.43;3.10;;;;;;;;;;4742761;30;20202;-87
2022/01/18 16:04:59;;;;;;;9.57;5.87;;;;;;;;;;4763189;30;20191;-87
2022/01/18 16:08:04;;;;;;;9.73;5.90;;;;;;;;;;4742603;30;20205;-86
2022/01/18 16:11:12;;;;;;;14.50;7.33;;;;;;;;;;4752484;30;20214;-87
2022/01/18 16:14:16;;;;;;;19.27;7.17;;;;;;;;;;4761488;30;20210;-87
2022/01/18 16:17:20;;;;;;;9.60;5.20;;;;;;;;;;4745254;30;20199;-87
2022/01/18 16:20:24;;;;;;;8.40;3.77;;;;;;;;;;4744853;30;20234;-87
2022/01/18 16:23:29;;;;;;;8.67;4.10;;;;;;;;;;4736937;30;20226;-86
2022/01/18 16:26:33;;;;;;;13.30;5.30;;;;;;;;;;4735224;30;20652;-86
2022/01/18 16:29:37;;;;;;;8.77;4.53;;;;;;;;;;4744630;30;21222;-87
2022/01/18 16:32:43;;;;;;;8.13;3.50;;;;;;;;;;4745838;30;20202;-86
2022/01/18 16:35:48;;;;;;;4.27;2.53;;;;;;;;;;4749989;30;20995;-86
2022/01/18 16:38:52;;;;;;;10.87;5.50;;;;;;;;;;4754425;30;20552;-87
2022/01/18 16:41:57;;;;;;;10.27;4.50;;;;;;;;;;4752606;30;20202;-86
2022/01/18 16:45:02;;;;;;;7.67;3.17;;;;;;;;;;4744530;30;20186;-86
2022/01/18 16:48:07;;;;;;;7.80;5.20;;;;;;;;;;4755577;30;20654;-86
2022/01/18 16:51:11;;;;;;;12.43;6.00;;;;;;;;;;4739090;30;20675;-86
2022/01/18 16:54:15;;;;;;;14.27;6.17;;;;;;;;;;4737022;30;20585;-87
2022/01/18 16:57:19;;;;;;;10.17;5.40;;;;;;;;;;4726775;30;20199;-88
2022/01/18 17:00:24;;;;;;;6.83;4.00;;;;;;;;;;4738393;30;20245;-87
2022/01/18 17:03:27;;;;;;;7.50;4.17;;;;;;;;;;4740203;30;20223;-88
2022/01/18 17:06:33;;;;;;;7.47;3.27;;;;;;;;;;4752132;30;20207;-88
2022/01/18 17:09:37;;;;;;;8.30;4.00;;;;;;;;;;4734245;30;20226;-88
2022/01/18 17:12:42;;;;;;;5.47;3.53;;;;;;;;;;4727626;30;20210;-89
2022/01/18 17:15:46;;;;;;;6.73;3.20;;;;;;;;;;4751886;30;21148;-90
2022/01/18 17:18:50;;;;;;;5.30;3.50;;;;;;;;;;4743191;30;20658;-87
2022/01/18 17:21:54;;;;;;;7.80;4.20;;;;;;;;;;4751809;30;20572;-87
2022/01/18 17:25:00;;;;;;;7.23;4.67;;;;;;;;;;4752489;30;20187;-87
2022/01/18 17:28:09;;;;;;;10.63;7.93;;;;;;;;;;4734316;30;20195;-87
2022/01/18 17:31:21;;;;;;;7.40;4.20;;;;;;;;;;4747550;30;20196;-86
2022/01/18 17:34:25;;;;;;;8.13;4.73;;;;;;;;;;4739862;30;20950;-87
2022/01/18 17:37:31;;;;;;;9.83;5.50;;;;;;;;;;4750054;30;20195;-87
2022/01/18 17:40:36;;;;;;;9.07;6.60;;;;;;;;;;4750693;30;20664;-88
2022/01/18 17:43:40;;;;;;;11.47;5.90;;;;;;;;;;4751878;30;20648;-89
2022/01/18 17:46:44;;;;;;;11.67;5.30;;;;;;;;;;4752497;30;20565;-88
2022/01/18 17:49:48;;;;;;;11.80;4.70;;;;;;;;;;4757604;30;20233;-88
2022/01/18 17:52:53;;;;;;;8.70;4.03;;;;;;;;;;4751526;30;20194;-89
2022/01/18 17:56:05;;;;;;;7.13;4.40;;;;;;;;;;4751730;30;20190;-87
2022/01/18 17:59:10;;;;;;;9.67;4.50;;;;;;;;;;4743611;30;20242;-88
2022/01/18 18:02:14;;;;;;;8.83;5.53;;;;;;;;;;4735179;30;20781;-87
2022/01/18 18:05:19;;;;;;;15.37;9.10;;;;;;;;;;4750616;30;20203;-87
2022/01/18 18:08:24;;;;;;;15.30;8.10;;;;;;;;;;4724759;30;20564;-87
2022/01/18 18:11:28;;;;;;;13.57;7.30;;;;;;;;;;4732957;30;20639;-88
2022/01/18 18:14:33;;;;;;;11.67;7.90;;;;;;;;;;4722814;30;20187;-87
2022/01/18 18:17:38;;;;;;;18.23;10.63;;;;;;;;;;4727250;30;20210;-87
2022/01/18 18:20:43;;;;;;;14.07;9.03;;;;;;;;;;4747001;30;20235;-87
2022/01/18 18:23:47;;;;;;;15.33;7.20;;;;;;;;;;4736866;30;20222;-89
2022/01/18 18:26:52;;;;;;;11.37;7.50;;;;;;;;;;4723189;30;20198;-89
2022/01/18 18:29:56;;;;;;;8.20;5.23;;;;;;;;;;4732999;30;20230;-89
2022/01/18 18:33:02;;;;;;;11.83;5.83;;;;;;;;;;4732659;30;20211;-89
2022/01/18 18:36:07;;;;;;;8.23;4.77;;;;;;;;;;4749609;30;20213;-88
2022/01/18 18:39:22;;;;;;;9.23;4.90;;;;;;;;;;4727357;30;20790;-89
2022/01/18 18:42:28;;;;;;;9.03;5.53;;;;;;;;;;4742866;30;20207;-89
2022/01/18 18:45:35;;;;;;;8.07;5.60;;;;;;;;;;4746312;30;20194;-88
2022/01/18 18:48:38;;;;;;;7.23;4.30;;;;;;;;;;4742210;30;20241;-89
2022/01/18 18:51:42;;;;;;;14.77;5.63;;;;;;;;;;4735012;30;20559;-88
2022/01/18 18:54:47;;;;;;;12.43;6.00;;;;;;;;;;4749761;30;20191;-88
2022/01/18 19:01:08;;;;;;;9.43;4.60;;;;;;;;;;4750510;30;20234;-89
2022/01/18 19:04:12;;;;;;;17.77;6.07;;;;;;;;;;4732035;30;20231;-87
2022/01/18 19:07:16;;;;;;;8.07;4.67;;;;;;;;;;4733379;30;20585;-87
2022/01/18 19:10:23;;;;;;;10.03;4.23;;;;;;;;;;4733527;30;20632;-88
2022/01/18 19:13:31;;;;;;;8.97;3.77;;;;;;;;;;4723362;30;21109;-87
2022/01/18 19:16:36;;;;;;;8.77;4.30;;;;;;;;;;4723759;30;20911;-87
2022/01/18 19:19:42;;;;;;;7.80;4.40;;;;;;;;;;4723993;30;20640;-88
2022/01/18 19:22:48;;;;;;;8.90;3.90;;;;;;;;;;4751458;30;20602;-86
2022/01/18 19:25:53;;;;;;;13.47;4.23;;;;;;;;;;4742317;30;20597;-87
2022/01/18 19:28:57;;;;;;;7.93;4.00;;;;;;;;;;4744851;30;20656;-89
2022/01/18 19:32:02;;;;;;;9.57;3.97;;;;;;;;;;4749458;30;20637;-88
2022/01/18 19:35:08;;;;;;;7.40;3.70;;;;;;;;;;4749521;30;20604;-86
2022/01/18 19:38:12;;;;;;;8.80;4.17;;;;;;;;;;4749530;30;20556;-87
2022/01/18 19:41:16;;;;;;;9.27;4.37;;;;;;;;;;4732116;30;20613;-87
2022/01/18 19:44:21;;;;;;;11.13;3.57;;;;;;;;;;4735146;30;20643;-86
2022/01/18 19:47:25;;;;;;;6.80;3.67;;;;;;;;;;4745757;30;20613;-85
2022/01/18 19:50:33;;;;;;;11.10;4.57;;;;;;;;;;4731895;30;20645;-87
2022/01/18 19:53:37;;;;;;;8.80;4.93;;;;;;;;;;4731791;30;20605;-88
2022/01/18 19:56:41;;;;;;;7.87;4.07;;;;;;;;;;4742898;30;20616;-87
2022/01/18 19:59:46;;;;;;;8.20;4.13;;;;;;;;;;4749409;30;20663;-86
2022/01/18 20:02:50;;;;;;;10.47;4.83;;;;;;;;;;4739438;30;20557;-88